sensor_id;sensor_type;location;lat;lon;timestamp;P1;durP1;ratioP1;P2;durP2;ratioP2
3329;SDS011;1677;49.576;10.990;2022-09-24T00:01:47;5.90;;;5.40;;
3329;SDS011;1677;49.576;10.990;2022-09-24T00:04:12;5.80;;;5.30;;
3329;SDS011;1677;49.576;10.990;2022-09-24T00:06:42;5.63;;;5.17;;
3329;SDS011;1677;49.576;10.990;2022-09-24T00:09:09;7.40;;;4.90;;
3329;SDS011;1677;49.576;10.990;2022-09-24T00:11:36;7.90;;;5.27;;
3329;SDS011;1677;49.576;10.990;2022-09-24T00:14:02;6.40;;;5.73;;
3329;SDS011;1677;49.576;10.990;2022-09-24T00:16:30;5.63;;;5.03;;
3329;SDS011;1677;49.576;10.990;2022-09-24T00:18:58;5.50;;;4.75;;
3329;SDS011;1677;49.576;10.990;2022-09-24T00:21:32;5.57;;;5.05;;
3329;SDS011;1677;49.576;10.990;2022-09-24T00:24:00;8.85;;;5.45;;
3329;SDS011;1677;49.576;10.990;2022-09-24T00:26:31;5.07;;;4.68;;
3329;SDS011;1677;49.576;10.990;2022-09-24T00:29:16;6.25;;;5.35;;
3329;SDS011;1677;49.576;10.990;2022-09-24T00:31:44;5.35;;;4.85;;
3329;SDS011;1677;49.576;10.990;2022-09-24T00:34:09;4.57;;;4.17;;
3329;SDS011;1677;49.576;10.990;2022-09-24T00:36:35;5.33;;;4.83;;
3329;SDS011;1677;49.576;10.990;2022-09-24T00:39:01;4.93;;;4.43;;
3329;SDS011;1677;49.576;10.990;2022-09-24T00:41:29;4.93;;;4.18;;
3329;SDS011;1677;49.576;10.990;2022-09-24T00:43:58;4.90;;;4.50;;
3329;SDS011;1677;49.576;10.990;2022-09-24T00:49:09;4.53;;;3.77;;
3329;SDS011;1677;49.576;10.990;2022-09-24T00:51:37;5.72;;;5.13;;
3329;SDS011;1677;49.576;10.990;2022-09-24T00:54:06;5.40;;;4.40;;
3329;SDS011;1677;49.576;10.990;2022-09-24T00:56:36;8.10;;;4.20;;
3329;SDS011;1677;49.576;10.990;2022-09-24T00:59:05;5.57;;;4.50;;
3329;SDS011;1677;49.576;10.990;2022-09-24T01:01:34;5.47;;;4.97;;
3329;SDS011;1677;49.576;10.990;2022-09-24T01:04:00;4.53;;;4.13;;
3329;SDS011;1677;49.576;10.990;2022-09-24T01:06:28;5.47;;;4.67;;
3329;SDS011;1677;49.576;10.990;2022-09-24T01:08:54;7.27;;;4.70;;
3329;SDS011;1677;49.576;10.990;2022-09-24T01:16:44;7.40;;;4.50;;
3329;SDS011;1677;49.576;10.990;2022-09-24T01:30:49;5.57;;;4.50;;
3329;SDS011;1677;49.576;10.990;2022-09-24T01:33:19;5.45;;;4.97;;
3329;SDS011;1677;49.576;10.990;2022-09-24T01:35:48;4.63;;;4.23;;
3329;SDS011;1677;49.576;10.990;2022-09-24T01:38:18;5.63;;;5.07;;
3329;SDS011;1677;49.576;10.990;2022-09-24T01:40:47;8.73;;;8.02;;
3329;SDS011;1677;49.576;10.990;2022-09-24T01:43:15;7.05;;;6.45;;
3329;SDS011;1677;49.576;10.990;2022-09-24T01:45:44;5.15;;;4.65;;
3329;SDS011;1677;49.576;10.990;2022-09-24T01:48:10;4.90;;;4.40;;
3329;SDS011;1677;49.576;10.990;2022-09-24T01:50:47;5.68;;;4.30;;
3329;SDS011;1677;49.576;10.990;2022-09-24T01:53:24;6.17;;;4.20;;
3329;SDS011;1677;49.576;10.990;2022-09-24T01:55:56;6.20;;;5.70;;
3329;SDS011;1677;49.576;10.990;2022-09-24T01:58:26;6.75;;;6.13;;
3329;SDS011;1677;49.576;10.990;2022-09-24T02:00:57;11.13;;;8.33;;
3329;SDS011;1677;49.576;10.990;2022-09-24T02:03:30;9.40;;;8.50;;
3329;SDS011;1677;49.576;10.990;2022-09-24T02:06:04;8.33;;;7.03;;
3329;SDS011;1677;49.576;10.990;2022-09-24T02:08:41;8.20;;;7.50;;
3329;SDS011;1677;49.576;10.990;2022-09-24T02:11:10;6.63;;;6.03;;
3329;SDS011;1677;49.576;10.990;2022-09-24T02:13:42;6.27;;;5.67;;
3329;SDS011;1677;49.576;10.990;2022-09-24T02:16:26;5.20;;;4.70;;
3329;SDS011;1677;49.576;10.990;2022-09-24T02:18:57;6.83;;;5.10;;
3329;SDS011;1677;49.576;10.990;2022-09-24T02:21:28;8.60;;;5.37;;
3329;SDS011;1677;49.576;10.990;2022-09-24T02:24:04;6.43;;;5.73;;
3329;SDS011;1677;49.576;10.990;2022-09-24T02:26:44;10.35;;;7.95;;
3329;SDS011;1677;49.576;10.990;2022-09-24T02:29:10;8.05;;;7.25;;
3329;SDS011;1677;49.576;10.990;2022-09-24T02:31:37;8.48;;;7.78;;
3329;SDS011;1677;49.576;10.990;2022-09-24T02:34:24;7.13;;;6.43;;
3329;SDS011;1677;49.576;10.990;2022-09-24T02:36:59;6.50;;;5.90;;
3329;SDS011;1677;49.576;10.990;2022-09-24T02:39:29;10.00;;;6.07;;
3329;SDS011;1677;49.576;10.990;2022-09-24T02:41:55;5.80;;;5.30;;
3329;SDS011;1677;49.576;10.990;2022-09-24T02:44:22;5.30;;;4.80;;
3329;SDS011;1677;49.576;10.990;2022-09-24T02:46:48;5.43;;;4.93;;
3329;SDS011;1677;49.576;10.990;2022-09-24T02:49:14;5.28;;;4.75;;
3329;SDS011;1677;49.576;10.990;2022-09-24T02:51:41;4.72;;;4.30;;
3329;SDS011;1677;49.576;10.990;2022-09-24T02:54:07;8.45;;;4.20;;
3329;SDS011;1677;49.576;10.990;2022-09-24T02:56:33;4.95;;;4.55;;
3329;SDS011;1677;49.576;10.990;2022-09-24T02:58:59;5.32;;;4.80;;
3329;SDS011;1677;49.576;10.990;2022-09-24T03:01:26;7.20;;;4.75;;
3329;SDS011;1677;49.576;10.990;2022-09-24T03:03:53;5.40;;;4.68;;
3329;SDS011;1677;49.576;10.990;2022-09-24T03:06:18;6.17;;;5.20;;
3329;SDS011;1677;49.576;10.990;2022-09-24T03:08:44;5.27;;;4.77;;
3329;SDS011;1677;49.576;10.990;2022-09-24T03:11:11;5.20;;;4.70;;
3329;SDS011;1677;49.576;10.990;2022-09-24T03:13:37;4.60;;;4.20;;
3329;SDS011;1677;49.576;10.990;2022-09-24T03:16:03;6.37;;;4.80;;
3329;SDS011;1677;49.576;10.990;2022-09-24T03:18:30;5.97;;;4.20;;
3329;SDS011;1677;49.576;10.990;2022-09-24T03:21:00;4.83;;;4.43;;
3329;SDS011;1677;49.576;10.990;2022-09-24T03:23:31;7.53;;;4.60;;
3329;SDS011;1677;49.576;10.990;2022-09-24T03:25:56;4.70;;;4.30;;
3329;SDS011;1677;49.576;10.990;2022-09-24T03:28:22;5.23;;;4.60;;
3329;SDS011;1677;49.576;10.990;2022-09-24T03:30:48;5.80;;;5.20;;
3329;SDS011;1677;49.576;10.990;2022-09-24T03:33:32;5.25;;;4.80;;
3329;SDS011;1677;49.576;10.990;2022-09-24T03:36:01;4.90;;;4.40;;
3329;SDS011;1677;49.576;10.990;2022-09-24T03:38:35;4.80;;;4.40;;
3329;SDS011;1677;49.576;10.990;2022-09-24T03:41:02;6.88;;;4.97;;
3329;SDS011;1677;49.576;10.990;2022-09-24T03:43:29;5.95;;;4.90;;
3329;SDS011;1677;49.576;10.990;2022-09-24T03:45:56;5.53;;;4.93;;
3329;SDS011;1677;49.576;10.990;2022-09-24T03:48:22;6.38;;;5.65;;
3329;SDS011;1677;49.576;10.990;2022-09-24T03:50:48;5.43;;;4.65;;
3329;SDS011;1677;49.576;10.990;2022-09-24T03:53:14;4.80;;;4.30;;
3329;SDS011;1677;49.576;10.990;2022-09-24T03:55:41;8.05;;;5.57;;
3329;SDS011;1677;49.576;10.990;2022-09-24T03:58:12;5.25;;;4.68;;
3329;SDS011;1677;49.576;10.990;2022-09-24T04:00:38;5.45;;;4.90;;
3329;SDS011;1677;49.576;10.990;2022-09-24T04:03:04;5.73;;;4.93;;
3329;SDS011;1677;49.576;10.990;2022-09-24T04:05:30;6.00;;;5.07;;
3329;SDS011;1677;49.576;10.990;2022-09-24T04:07:56;6.23;;;5.13;;
3329;SDS011;1677;49.576;10.990;2022-09-24T04:10:24;5.45;;;4.95;;
3329;SDS011;1677;49.576;10.990;2022-09-24T04:12:50;5.80;;;4.95;;
3329;SDS011;1677;49.576;10.990;2022-09-24T04:15:16;5.22;;;4.72;;
3329;SDS011;1677;49.576;10.990;2022-09-24T04:17:49;6.90;;;4.87;;
3329;SDS011;1677;49.576;10.990;2022-09-24T04:20:24;5.00;;;4.57;;
3329;SDS011;1677;49.576;10.990;2022-09-24T04:22:52;6.27;;;4.80;;
3329;SDS011;1677;49.576;10.990;2022-09-24T04:25:19;6.57;;;4.70;;
3329;SDS011;1677;49.576;10.990;2022-09-24T04:27:46;5.73;;;5.23;;
3329;SDS011;1677;49.576;10.990;2022-09-24T04:30:16;5.33;;;4.80;;
3329;SDS011;1677;49.576;10.990;2022-09-24T04:32:42;6.07;;;5.33;;
3329;SDS011;1677;49.576;10.990;2022-09-24T04:35:08;6.47;;;5.07;;
3329;SDS011;1677;49.576;10.990;2022-09-24T04:37:34;5.87;;;4.80;;
3329;SDS011;1677;49.576;10.990;2022-09-24T04:40:00;5.97;;;4.40;;
3329;SDS011;1677;49.576;10.990;2022-09-24T04:42:26;5.25;;;4.75;;
3329;SDS011;1677;49.576;10.990;2022-09-24T04:44:51;6.00;;;4.80;;
3329;SDS011;1677;49.576;10.990;2022-09-24T04:47:18;5.50;;;4.60;;
3329;SDS011;1677;49.576;10.990;2022-09-24T04:49:43;6.40;;;4.80;;
3329;SDS011;1677;49.576;10.990;2022-09-24T04:52:10;4.97;;;4.47;;
3329;SDS011;1677;49.576;10.990;2022-09-24T04:54:39;4.57;;;4.18;;
3329;SDS011;1677;49.576;10.990;2022-09-24T04:57:10;5.85;;;5.30;;
3329;SDS011;1677;49.576;10.990;2022-09-24T04:59:40;5.68;;;5.07;;
3329;SDS011;1677;49.576;10.990;2022-09-24T05:02:07;6.03;;;4.88;;
3329;SDS011;1677;49.576;10.990;2022-09-24T05:04:33;7.00;;;5.30;;
3329;SDS011;1677;49.576;10.990;2022-09-24T05:06:59;5.72;;;5.13;;
3329;SDS011;1677;49.576;10.990;2022-09-24T05:09:25;6.87;;;5.20;;
3329;SDS011;1677;49.576;10.990;2022-09-24T05:11:50;6.57;;;5.00;;
3329;SDS011;1677;49.576;10.990;2022-09-24T05:14:16;5.97;;;5.37;;
3329;SDS011;1677;49.576;10.990;2022-09-24T05:16:41;4.70;;;4.30;;
3329;SDS011;1677;49.576;10.990;2022-09-24T05:19:07;5.20;;;4.70;;
3329;SDS011;1677;49.576;10.990;2022-09-24T05:21:32;5.40;;;4.20;;
3329;SDS011;1677;49.576;10.990;2022-09-24T05:23:58;5.47;;;4.97;;
3329;SDS011;1677;49.576;10.990;2022-09-24T05:26:24;5.20;;;4.70;;
3329;SDS011;1677;49.576;10.990;2022-09-24T05:29:08;5.40;;;5.00;;
3329;SDS011;1677;49.576;10.990;2022-09-24T05:31:33;5.23;;;4.83;;
3329;SDS011;1677;49.576;10.990;2022-09-24T05:33:59;4.83;;;4.33;;
3329;SDS011;1677;49.576;10.990;2022-09-24T05:36:24;4.90;;;4.30;;
3329;SDS011;1677;49.576;10.990;2022-09-24T05:38:51;6.97;;;4.77;;
3329;SDS011;1677;49.576;10.990;2022-09-24T05:41:17;6.10;;;4.73;;
3329;SDS011;1677;49.576;10.990;2022-09-24T05:43:43;5.00;;;4.53;;
3329;SDS011;1677;49.576;10.990;2022-09-24T05:46:09;4.60;;;4.20;;
3329;SDS011;1677;49.576;10.990;2022-09-24T05:48:34;5.33;;;4.83;;
3329;SDS011;1677;49.576;10.990;2022-09-24T05:51:00;5.30;;;4.57;;
3329;SDS011;1677;49.576;10.990;2022-09-24T05:53:26;4.82;;;4.20;;
3329;SDS011;1677;49.576;10.990;2022-09-24T05:55:51;7.30;;;5.57;;
3329;SDS011;1677;49.576;10.990;2022-09-24T05:58:17;6.07;;;4.97;;
3329;SDS011;1677;49.576;10.990;2022-09-24T06:00:43;5.07;;;4.53;;
3329;SDS011;1677;49.576;10.990;2022-09-24T06:03:10;5.00;;;4.50;;
3329;SDS011;1677;49.576;10.990;2022-09-24T06:05:37;6.30;;;5.47;;
3329;SDS011;1677;49.576;10.990;2022-09-24T06:08:07;7.40;;;4.97;;
3329;SDS011;1677;49.576;10.990;2022-09-24T06:10:32;5.47;;;4.97;;
3329;SDS011;1677;49.576;10.990;2022-09-24T06:12:58;5.30;;;4.90;;
3329;SDS011;1677;49.576;10.990;2022-09-24T06:15:23;5.17;;;4.77;;
3329;SDS011;1677;49.576;10.990;2022-09-24T06:17:53;5.20;;;4.70;;
3329;SDS011;1677;49.576;10.990;2022-09-24T06:20:20;5.05;;;4.55;;
3329;SDS011;1677;49.576;10.990;2022-09-24T06:22:46;5.45;;;4.95;;
3329;SDS011;1677;49.576;10.990;2022-09-24T06:25:12;5.83;;;5.23;;
3329;SDS011;1677;49.576;10.990;2022-09-24T06:27:37;7.40;;;4.90;;
3329;SDS011;1677;49.576;10.990;2022-09-24T06:30:03;5.97;;;5.30;;
3329;SDS011;1677;49.576;10.990;2022-09-24T06:32:29;6.20;;;5.65;;
3329;SDS011;1677;49.576;10.990;2022-09-24T06:34:55;7.27;;;5.30;;
3329;SDS011;1677;49.576;10.990;2022-09-24T06:37:20;8.53;;;5.10;;
3329;SDS011;1677;49.576;10.990;2022-09-24T06:39:46;6.80;;;5.70;;
3329;SDS011;1677;49.576;10.990;2022-09-24T06:42:12;8.20;;;5.73;;
3329;SDS011;1677;49.576;10.990;2022-09-24T06:44:37;8.23;;;5.80;;
3329;SDS011;1677;49.576;10.990;2022-09-24T06:47:03;5.90;;;5.30;;
3329;SDS011;1677;49.576;10.990;2022-09-24T06:49:28;7.87;;;5.33;;
3329;SDS011;1677;49.576;10.990;2022-09-24T06:51:54;8.30;;;5.87;;
3329;SDS011;1677;49.576;10.990;2022-09-24T06:54:20;6.83;;;5.23;;
3329;SDS011;1677;49.576;10.990;2022-09-24T06:56:46;6.00;;;5.30;;
3329;SDS011;1677;49.576;10.990;2022-09-24T06:59:12;5.73;;;5.00;;
3329;SDS011;1677;49.576;10.990;2022-09-24T07:01:38;7.60;;;6.60;;
3329;SDS011;1677;49.576;10.990;2022-09-24T07:04:04;6.23;;;5.67;;
3329;SDS011;1677;49.576;10.990;2022-09-24T07:06:29;6.30;;;5.70;;
3329;SDS011;1677;49.576;10.990;2022-09-24T07:09:15;6.30;;;5.27;;
3329;SDS011;1677;49.576;10.990;2022-09-24T07:11:40;8.50;;;5.70;;
3329;SDS011;1677;49.576;10.990;2022-09-24T07:14:07;7.03;;;6.33;;
3329;SDS011;1677;49.576;10.990;2022-09-24T07:16:33;6.30;;;5.00;;
3329;SDS011;1677;49.576;10.990;2022-09-24T07:18:58;6.40;;;5.83;;
3329;SDS011;1677;49.576;10.990;2022-09-24T07:21:24;6.17;;;5.57;;
3329;SDS011;1677;49.576;10.990;2022-09-24T07:23:49;6.50;;;5.90;;
3329;SDS011;1677;49.576;10.990;2022-09-24T07:26:15;5.97;;;5.37;;
3329;SDS011;1677;49.576;10.990;2022-09-24T07:28:40;6.87;;;5.73;;
3329;SDS011;1677;49.576;10.990;2022-09-24T07:31:06;5.80;;;5.30;;
3329;SDS011;1677;49.576;10.990;2022-09-24T07:33:33;9.00;;;5.60;;
3329;SDS011;1677;49.576;10.990;2022-09-24T07:35:58;5.90;;;5.23;;
3329;SDS011;1677;49.576;10.990;2022-09-24T07:38:30;6.77;;;5.37;;
3329;SDS011;1677;49.576;10.990;2022-09-24T07:40:56;9.87;;;6.87;;
3329;SDS011;1677;49.576;10.990;2022-09-24T07:43:23;7.20;;;6.07;;
3329;SDS011;1677;49.576;10.990;2022-09-24T07:45:48;6.00;;;5.40;;
3329;SDS011;1677;49.576;10.990;2022-09-24T07:48:14;10.30;;;5.77;;
3329;SDS011;1677;49.576;10.990;2022-09-24T07:50:40;6.67;;;5.97;;
3329;SDS011;1677;49.576;10.990;2022-09-24T07:53:07;7.47;;;5.47;;
3329;SDS011;1677;49.576;10.990;2022-09-24T07:55:35;6.07;;;5.47;;
3329;SDS011;1677;49.576;10.990;2022-09-24T07:58:04;7.13;;;6.03;;
3329;SDS011;1677;49.576;10.990;2022-09-24T08:00:31;7.30;;;6.60;;
3329;SDS011;1677;49.576;10.990;2022-09-24T08:02:57;6.50;;;5.90;;
3329;SDS011;1677;49.576;10.990;2022-09-24T08:05:23;7.70;;;6.00;;
3329;SDS011;1677;49.576;10.990;2022-09-24T08:07:49;6.70;;;6.10;;
3329;SDS011;1677;49.576;10.990;2022-09-24T08:10:19;8.20;;;6.83;;
3329;SDS011;1677;49.576;10.990;2022-09-24T08:12:45;8.73;;;6.80;;
3329;SDS011;1677;49.576;10.990;2022-09-24T08:15:11;7.60;;;5.03;;
3329;SDS011;1677;49.576;10.990;2022-09-24T08:17:37;6.43;;;5.83;;
3329;SDS011;1677;49.576;10.990;2022-09-24T08:20:02;6.90;;;6.20;;
3329;SDS011;1677;49.576;10.990;2022-09-24T08:22:28;7.33;;;6.50;;
3329;SDS011;1677;49.576;10.990;2022-09-24T08:24:54;8.00;;;6.70;;
3329;SDS011;1677;49.576;10.990;2022-09-24T08:27:21;7.60;;;6.47;;
3329;SDS011;1677;49.576;10.990;2022-09-24T08:29:48;7.60;;;6.90;;
3329;SDS011;1677;49.576;10.990;2022-09-24T08:32:13;8.20;;;6.83;;
3329;SDS011;1677;49.576;10.990;2022-09-24T08:34:39;9.37;;;7.60;;
3329;SDS011;1677;49.576;10.990;2022-09-24T08:37:05;7.33;;;6.63;;
3329;SDS011;1677;49.576;10.990;2022-09-24T08:39:31;7.53;;;6.83;;
3329;SDS011;1677;49.576;10.990;2022-09-24T08:42:33;7.90;;;7.20;;
3329;SDS011;1677;49.576;10.990;2022-09-24T08:44:49;8.30;;;7.00;;
3329;SDS011;1677;49.576;10.990;2022-09-24T08:47:54;8.10;;;7.30;;
3329;SDS011;1677;49.576;10.990;2022-09-24T08:50:25;8.60;;;6.53;;
3329;SDS011;1677;49.576;10.990;2022-09-24T08:55:37;9.13;;;7.60;;
3329;SDS011;1677;49.576;10.990;2022-09-24T09:00:42;8.63;;;7.33;;
3329;SDS011;1677;49.576;10.990;2022-09-24T09:03:34;10.30;;;7.23;;
3329;SDS011;1677;49.576;10.990;2022-09-24T09:11:29;7.73;;;6.90;;
3329;SDS011;1677;49.576;10.990;2022-09-24T09:14:18;8.77;;;7.67;;
3329;SDS011;1677;49.576;10.990;2022-09-24T09:17:36;8.23;;;7.40;;
3329;SDS011;1677;49.576;10.990;2022-09-24T09:19:55;9.23;;;8.27;;
3329;SDS011;1677;49.576;10.990;2022-09-24T09:22:24;7.73;;;6.70;;
3329;SDS011;1677;49.576;10.990;2022-09-24T09:24:56;7.73;;;7.00;;
3329;SDS011;1677;49.576;10.990;2022-09-24T09:27:26;8.40;;;6.93;;
3329;SDS011;1677;49.576;10.990;2022-09-24T09:29:55;8.97;;;8.07;;
3329;SDS011;1677;49.576;10.990;2022-09-24T09:35:14;11.77;;;8.17;;
3329;SDS011;1677;49.576;10.990;2022-09-24T09:38:02;8.47;;;7.60;;
3329;SDS011;1677;49.576;10.990;2022-09-24T09:40:34;8.83;;;8.00;;
3329;SDS011;1677;49.576;10.990;2022-09-24T09:43:09;8.23;;;7.43;;
3329;SDS011;1677;49.576;10.990;2022-09-24T09:45:45;9.33;;;7.37;;
3329;SDS011;1677;49.576;10.990;2022-09-24T09:48:24;9.20;;;8.30;;
3329;SDS011;1677;49.576;10.990;2022-09-24T09:50:59;9.50;;;8.50;;
3329;SDS011;1677;49.576;10.990;2022-09-24T09:53:30;9.63;;;8.57;;
3329;SDS011;1677;49.576;10.990;2022-09-24T09:56:03;11.70;;;9.50;;
3329;SDS011;1677;49.576;10.990;2022-09-24T09:58:39;9.53;;;8.53;;
3329;SDS011;1677;49.576;10.990;2022-09-24T10:01:09;12.00;;;9.60;;
3329;SDS011;1677;49.576;10.990;2022-09-24T10:06:25;9.50;;;8.57;;
3329;SDS011;1677;49.576;10.990;2022-09-24T10:08:52;11.13;;;9.95;;
3329;SDS011;1677;49.576;10.990;2022-09-24T10:11:18;9.97;;;9.07;;
3329;SDS011;1677;49.576;10.990;2022-09-24T10:13:46;9.67;;;8.77;;
3329;SDS011;1677;49.576;10.990;2022-09-24T10:16:24;10.07;;;9.07;;
3329;SDS011;1677;49.576;10.990;2022-09-24T10:18:50;10.37;;;8.70;;
3329;SDS011;1677;49.576;10.990;2022-09-24T10:21:29;8.80;;;7.90;;
3329;SDS011;1677;49.576;10.990;2022-09-24T10:24:03;12.60;;;9.17;;
3329;SDS011;1677;49.576;10.990;2022-09-24T10:26:39;8.60;;;7.80;;
3329;SDS011;1677;49.576;10.990;2022-09-24T10:29:11;10.20;;;8.47;;
3329;SDS011;1677;49.576;10.990;2022-09-24T10:32:02;10.93;;;9.77;;
3329;SDS011;1677;49.576;10.990;2022-09-24T10:34:29;11.13;;;10.10;;
3329;SDS011;1677;49.576;10.990;2022-09-24T10:37:03;10.97;;;9.33;;
3329;SDS011;1677;49.576;10.990;2022-09-24T10:39:36;14.87;;;10.40;;
3329;SDS011;1677;49.576;10.990;2022-09-24T10:42:02;11.00;;;9.80;;
3329;SDS011;1677;49.576;10.990;2022-09-24T10:44:33;11.63;;;9.73;;
3329;SDS011;1677;49.576;10.990;2022-09-24T10:54:59;14.60;;;10.17;;
3329;SDS011;1677;49.576;10.990;2022-09-24T11:01:13;9.70;;;8.37;;
3329;SDS011;1677;49.576;10.990;2022-09-24T11:03:58;10.77;;;9.67;;
3329;SDS011;1677;49.576;10.990;2022-09-24T11:09:39;10.77;;;9.73;;
3329;SDS011;1677;49.576;10.990;2022-09-24T11:12:23;11.57;;;10.37;;
3329;SDS011;1677;49.576;10.990;2022-09-24T11:20:47;13.27;;;9.83;;
3329;SDS011;1677;49.576;10.990;2022-09-24T11:37:30;8.63;;;7.53;;
3329;SDS011;1677;49.576;10.990;2022-09-24T11:40:25;9.10;;;7.60;;
3329;SDS011;1677;49.576;10.990;2022-09-24T11:42:59;9.20;;;7.57;;
3329;SDS011;1677;49.576;10.990;2022-09-24T11:48:33;9.20;;;7.53;;
3329;SDS011;1677;49.576;10.990;2022-09-24T11:54:05;8.97;;;7.17;;
3329;SDS011;1677;49.576;10.990;2022-09-24T11:57:07;11.50;;;8.70;;
3329;SDS011;1677;49.576;10.990;2022-09-24T12:02:35;9.67;;;8.03;;
3329;SDS011;1677;49.576;10.990;2022-09-24T12:11:00;8.83;;;7.40;;
3329;SDS011;1677;49.576;10.990;2022-09-24T12:13:39;10.83;;;6.83;;
3329;SDS011;1677;49.576;10.990;2022-09-24T12:16:17;9.03;;;7.80;;
3329;SDS011;1677;49.576;10.990;2022-09-24T12:19:02;9.40;;;8.40;;
3329;SDS011;1677;49.576;10.990;2022-09-24T12:21:39;8.77;;;7.13;;
3329;SDS011;1677;49.576;10.990;2022-09-24T12:24:53;8.60;;;6.23;;
3329;SDS011;1677;49.576;10.990;2022-09-24T12:27:06;9.37;;;6.77;;
3329;SDS011;1677;49.576;10.990;2022-09-24T12:32:53;8.00;;;6.50;;
3329;SDS011;1677;49.576;10.990;2022-09-24T12:38:34;7.37;;;6.67;;
3329;SDS011;1677;49.576;10.990;2022-09-24T12:46:27;7.80;;;6.90;;
3329;SDS011;1677;49.576;10.990;2022-09-24T12:48:53;8.37;;;6.70;;
3329;SDS011;1677;49.576;10.990;2022-09-24T12:51:20;7.50;;;6.80;;
3329;SDS011;1677;49.576;10.990;2022-09-24T12:53:59;9.23;;;8.30;;
3329;SDS011;1677;49.576;10.990;2022-09-24T12:56:30;9.80;;;7.47;;
3329;SDS011;1677;49.576;10.990;2022-09-24T12:58:56;9.07;;;7.77;;
3329;SDS011;1677;49.576;10.990;2022-09-24T13:04:00;7.97;;;6.90;;
3329;SDS011;1677;49.576;10.990;2022-09-24T13:06:49;10.73;;;7.50;;
3329;SDS011;1677;49.576;10.990;2022-09-24T13:14:39;8.67;;;6.90;;
3329;SDS011;1677;49.576;10.990;2022-09-24T13:17:07;8.70;;;7.88;;
3329;SDS011;1677;49.576;10.990;2022-09-24T13:19:39;8.13;;;7.33;;
3329;SDS011;1677;49.576;10.990;2022-09-24T13:22:21;7.07;;;6.47;;
3329;SDS011;1677;49.576;10.990;2022-09-24T13:24:52;9.40;;;5.70;;
3329;SDS011;1677;49.576;10.990;2022-09-24T13:27:38;6.17;;;5.57;;
3329;SDS011;1677;49.576;10.990;2022-09-24T13:32:55;5.93;;;5.33;;
3329;SDS011;1677;49.576;10.990;2022-09-24T13:35:27;6.90;;;6.00;;
3329;SDS011;1677;49.576;10.990;2022-09-24T13:38:07;6.60;;;5.27;;
3329;SDS011;1677;49.576;10.990;2022-09-24T13:40:40;7.27;;;6.57;;
3329;SDS011;1677;49.576;10.990;2022-09-24T13:43:14;6.10;;;5.50;;
3329;SDS011;1677;49.576;10.990;2022-09-24T13:45:45;10.17;;;6.90;;
3329;SDS011;1677;49.576;10.990;2022-09-24T13:48:17;5.70;;;5.20;;
3329;SDS011;1677;49.576;10.990;2022-09-24T13:50:54;8.60;;;5.90;;
3329;SDS011;1677;49.576;10.990;2022-09-24T13:56:02;6.83;;;6.13;;
3329;SDS011;1677;49.576;10.990;2022-09-24T13:58:38;5.40;;;4.90;;
3329;SDS011;1677;49.576;10.990;2022-09-24T14:01:09;5.50;;;4.50;;
3329;SDS011;1677;49.576;10.990;2022-09-24T14:03:37;7.57;;;6.03;;
3329;SDS011;1677;49.576;10.990;2022-09-24T14:06:10;5.73;;;5.10;;
3329;SDS011;1677;49.576;10.990;2022-09-24T14:08:42;5.33;;;4.83;;
3329;SDS011;1677;49.576;10.990;2022-09-24T14:11:18;5.77;;;5.27;;
3329;SDS011;1677;49.576;10.990;2022-09-24T14:13:45;11.13;;;4.83;;
3329;SDS011;1677;49.576;10.990;2022-09-24T14:18:41;8.17;;;4.80;;
3329;SDS011;1677;49.576;10.990;2022-09-24T14:24:04;6.50;;;5.10;;
3329;SDS011;1677;49.576;10.990;2022-09-24T14:26:30;7.93;;;5.10;;
3329;SDS011;1677;49.576;10.990;2022-09-24T14:28:58;8.63;;;5.50;;
3329;SDS011;1677;49.576;10.990;2022-09-24T14:31:28;7.10;;;5.57;;
3329;SDS011;1677;49.576;10.990;2022-09-24T14:33:53;9.30;;;6.00;;
3329;SDS011;1677;49.576;10.990;2022-09-24T14:36:20;6.67;;;6.03;;
3329;SDS011;1677;49.576;10.990;2022-09-24T14:39:01;6.07;;;5.57;;
3329;SDS011;1677;49.576;10.990;2022-09-24T14:41:30;7.63;;;5.60;;
3329;SDS011;1677;49.576;10.990;2022-09-24T14:43:58;7.60;;;6.40;;
3329;SDS011;1677;49.576;10.990;2022-09-24T14:46:38;5.10;;;4.67;;
3329;SDS011;1677;49.576;10.990;2022-09-24T14:49:17;7.73;;;5.03;;
3329;SDS011;1677;49.576;10.990;2022-09-24T14:51:51;6.87;;;6.07;;
3329;SDS011;1677;49.576;10.990;2022-09-24T14:54:32;6.07;;;5.47;;
3329;SDS011;1677;49.576;10.990;2022-09-24T14:57:19;5.83;;;4.73;;
3329;SDS011;1677;49.576;10.990;2022-09-24T14:59:48;6.80;;;5.33;;
3329;SDS011;1677;49.576;10.990;2022-09-24T15:04:46;4.90;;;4.50;;
3329;SDS011;1677;49.576;10.990;2022-09-24T15:07:22;5.17;;;4.67;;
3329;SDS011;1677;49.576;10.990;2022-09-24T15:09:50;5.73;;;5.13;;
3329;SDS011;1677;49.576;10.990;2022-09-24T15:12:22;6.43;;;5.83;;
3329;SDS011;1677;49.576;10.990;2022-09-24T15:17:29;7.03;;;5.97;;
3329;SDS011;1677;49.576;10.990;2022-09-24T15:19:56;6.53;;;5.67;;
3329;SDS011;1677;49.576;10.990;2022-09-24T15:22:23;6.60;;;5.90;;
3329;SDS011;1677;49.576;10.990;2022-09-24T15:24:50;8.13;;;6.13;;
3329;SDS011;1677;49.576;10.990;2022-09-24T15:27:22;6.17;;;5.57;;
3329;SDS011;1677;49.576;10.990;2022-09-24T15:29:51;7.10;;;6.40;;
3329;SDS011;1677;49.576;10.990;2022-09-24T15:32:18;10.40;;;5.83;;
3329;SDS011;1677;49.576;10.990;2022-09-24T15:34:45;7.77;;;5.80;;
3329;SDS011;1677;49.576;10.990;2022-09-24T15:37:12;6.70;;;5.97;;
3329;SDS011;1677;49.576;10.990;2022-09-24T15:39:40;9.83;;;5.50;;
3329;SDS011;1677;49.576;10.990;2022-09-24T15:42:12;6.83;;;5.93;;
3329;SDS011;1677;49.576;10.990;2022-09-24T15:44:42;6.63;;;5.27;;
3329;SDS011;1677;49.576;10.990;2022-09-24T15:47:09;7.90;;;6.80;;
3329;SDS011;1677;49.576;10.990;2022-09-24T15:49:34;6.60;;;5.90;;
3329;SDS011;1677;49.576;10.990;2022-09-24T15:52:01;7.80;;;6.40;;
3329;SDS011;1677;49.576;10.990;2022-09-24T15:54:31;7.53;;;6.20;;
3329;SDS011;1677;49.576;10.990;2022-09-24T15:56:57;7.83;;;7.03;;
3329;SDS011;1677;49.576;10.990;2022-09-24T15:59:23;8.40;;;7.50;;
3329;SDS011;1677;49.576;10.990;2022-09-24T16:01:51;10.80;;;6.60;;
3329;SDS011;1677;49.576;10.990;2022-09-24T16:04:18;7.27;;;6.60;;
3329;SDS011;1677;49.576;10.990;2022-09-24T16:06:44;6.60;;;6.00;;
3329;SDS011;1677;49.576;10.990;2022-09-24T16:09:10;7.33;;;6.63;;
3329;SDS011;1677;49.576;10.990;2022-09-24T16:11:35;8.80;;;6.22;;
3329;SDS011;1677;49.576;10.990;2022-09-24T16:14:01;9.63;;;6.97;;
3329;SDS011;1677;49.576;10.990;2022-09-24T16:16:26;7.57;;;6.87;;
3329;SDS011;1677;49.576;10.990;2022-09-24T16:18:52;6.60;;;6.00;;
3329;SDS011;1677;49.576;10.990;2022-09-24T16:21:18;8.53;;;7.63;;
3329;SDS011;1677;49.576;10.990;2022-09-24T16:23:44;7.00;;;6.30;;
3329;SDS011;1677;49.576;10.990;2022-09-24T16:26:09;11.77;;;8.20;;
3329;SDS011;1677;49.576;10.990;2022-09-24T16:28:35;12.20;;;9.30;;
3329;SDS011;1677;49.576;10.990;2022-09-24T16:31:04;8.43;;;7.60;;
3329;SDS011;1677;49.576;10.990;2022-09-24T16:33:31;9.07;;;8.17;;
3329;SDS011;1677;49.576;10.990;2022-09-24T16:36:04;7.40;;;6.70;;
3329;SDS011;1677;49.576;10.990;2022-09-24T16:38:34;8.53;;;7.63;;
3329;SDS011;1677;49.576;10.990;2022-09-24T16:41:01;9.37;;;8.47;;
3329;SDS011;1677;49.576;10.990;2022-09-24T16:43:27;8.50;;;7.70;;
3329;SDS011;1677;49.576;10.990;2022-09-24T16:45:53;8.00;;;7.00;;
3329;SDS011;1677;49.576;10.990;2022-09-24T16:48:23;8.40;;;7.40;;
3329;SDS011;1677;49.576;10.990;2022-09-24T16:50:49;8.73;;;6.70;;
3329;SDS011;1677;49.576;10.990;2022-09-24T16:53:14;8.67;;;6.97;;
3329;SDS011;1677;49.576;10.990;2022-09-24T16:55:40;7.90;;;6.70;;
3329;SDS011;1677;49.576;10.990;2022-09-24T16:58:05;8.77;;;7.00;;
3329;SDS011;1677;49.576;10.990;2022-09-24T17:00:31;13.33;;;6.50;;
3329;SDS011;1677;49.576;10.990;2022-09-24T17:02:57;7.73;;;6.70;;
3329;SDS011;1677;49.576;10.990;2022-09-24T17:05:23;7.73;;;6.60;;
3329;SDS011;1677;49.576;10.990;2022-09-24T17:07:49;12.60;;;6.60;;
3329;SDS011;1677;49.576;10.990;2022-09-24T17:10:14;9.93;;;6.73;;
3329;SDS011;1677;49.576;10.990;2022-09-24T17:12:42;12.13;;;6.47;;
3329;SDS011;1677;49.576;10.990;2022-09-24T17:15:18;15.10;;;7.63;;
3329;SDS011;1677;49.576;10.990;2022-09-24T17:17:44;11.10;;;6.57;;